Terminal Aerodrome Forecast
Issued by NWS Wilmington, OH

Current Version | Previous Version | Text Only | Print | Product List | Glossary Off
Versions: 1 2 3 4 5 6 7 8 9 10 11 12 13 14 15

000
FTUS41 KILN 100209 AAA
TAFCMH
TAF AMD
KCMH 100209Z 1002/1024 25007KT P6SM VCSH BKN012 OVC045
     FM100500 28010KT P6SM OVC020
     FM101300 25010KT P6SM SCT025 OVC100
     FM102200 24012KT P6SM BKN050=

USA.gov is the U.S. government's official web portal to all federal, state and local government web resources and services.